Tanais Express — V3OQ8 — position and weather

sailwx.info

Track history (hours):
 
Tides and Currents Weather Stations Pressure Air Temp Water Temp Dewpoint Dewpoint Depression Visibility Wind Speed Wind Dir Waves Ship Positions

Tanais Express

Last reported at 2015-Jan-13 08:13 UTC. Time now 2015-Mar-02 01:05 UTC.
Position N 38°54' E 003°05'.
Warning: this ship's position is 47 days out of date.

Length 159 m; draft 5.6 m.

Type: Cargo ship. MMSI: 312655000.

Date/timePositionNaut miles runAvg speedWind from/ knotsBaromVisibWave heightAir tempDewpointWater temp
2015-Jan-13 08:13N 38°54' E 003°05'812.1
2015-Jan-13 07:33N 38°56' E 002°55'1211.8
2015-Jan-13 06:33N 38°58' E 002°40'1111.4
2015-Jan-13 05:33N 39°02' E 002°26'1311.7
2015-Jan-13 04:27N 39°08' E 002°11'1111.6
2015-Jan-13 03:32N 39°13' E 001°59'  
2015-Jan-07 09:30N 39°20' E 001°57'1010.4
2015-Jan-07 08:33N 39°16' E 002°09'1010.3
2015-Jan-07 07:32N 39°12' E 002°21'1110.7
2015-Jan-07 06:30N 39°07' E 002°34'1210.3
2015-Jan-07 05:22N 39°03' E 002°48'1110.1
2015-Jan-07 04:18N 38°59' E 003°01'810.2
2015-Jan-07 03:29N 38°58' E 003°12'  
Track history (hours):
 
Tides and Currents Weather Stations Pressure Air Temp Water Temp Dewpoint Dewpoint Depression Visibility Wind Speed Wind Dir Waves Ship Positions

Tanais Express

Last reported at 2015-Jan-13 08:13 UTC. Time now 2015-Mar-02 01:05 UTC.
Position N 38°54' E 003°05'.
Warning: this ship's position is 47 days out of date.

Length 159 m; draft 5.6 m.

Type: Cargo ship. MMSI: 312655000.

Date/timePositionNaut miles runAvg speedWind from/ knotsBaromVisibWave heightAir tempDewpointWater temp
2015-Jan-13 08:13N 38°54' E 003°05'812.1
2015-Jan-13 07:33N 38°56' E 002°55'1211.8
2015-Jan-13 06:33N 38°58' E 002°40'1111.4
2015-Jan-13 05:33N 39°02' E 002°26'1311.7
2015-Jan-13 04:27N 39°08' E 002°11'1111.6
2015-Jan-13 03:32N 39°13' E 001°59'  
2015-Jan-07 09:30N 39°20' E 001°57'1010.4
2015-Jan-07 08:33N 39°16' E 002°09'1010.3
2015-Jan-07 07:32N 39°12' E 002°21'1110.7
2015-Jan-07 06:30N 39°07' E 002°34'1210.3
2015-Jan-07 05:22N 39°03' E 002°48'1110.1
2015-Jan-07 04:18N 38°59' E 003°01'810.2
2015-Jan-07 03:29N 38°58' E 003°12'  

Dump ship's entire track history